createdAt,value
2022-10-19T00:02:49.417Z,13
2022-10-19T00:08:13.355Z,12.7
2022-10-19T00:13:58.479Z,12.8
2022-10-19T00:19:38.340Z,13.1
2022-10-19T00:24:50.182Z,13
2022-10-19T00:30:31.016Z,12.6
2022-10-19T00:36:01.929Z,12.7
2022-10-19T00:41:32.238Z,12.7
2022-10-19T00:47:20.598Z,12.5
2022-10-19T00:52:52.657Z,12.7
2022-10-19T00:58:15.569Z,12.6
2022-10-19T01:03:45.740Z,12.9
2022-10-19T01:09:28.314Z,12.9
2022-10-19T01:15:05.364Z,12.9
2022-10-19T01:20:39.309Z,12.9
2022-10-19T01:26:10.237Z,12.5
2022-10-19T01:31:55.822Z,12.4
2022-10-19T01:37:25.654Z,12.6
2022-10-19T01:42:45.790Z,12.6
2022-10-19T01:48:34.214Z,12.8
2022-10-19T01:54:09.201Z,12.5
2022-10-19T01:59:30.145Z,11.8
2022-10-19T02:05:10.765Z,12.1
2022-10-19T02:10:24.260Z,12.1
2022-10-19T02:16:07.573Z,12
2022-10-19T02:21:41.502Z,11.8
2022-10-19T02:27:05.230Z,11.6
2022-10-19T02:32:42.335Z,11.5
2022-10-19T02:38:14.673Z,11.5
2022-10-19T02:43:45.523Z,11.5
2022-10-19T02:49:14.944Z,11.5
2022-10-19T02:55:12.807Z,11.4
2022-10-19T03:00:20.895Z,11.3
2022-10-19T03:06:09.421Z,11.3
2022-10-19T03:11:25.907Z,11.2
2022-10-19T03:17:12.190Z,11.2
2022-10-19T03:22:33.346Z,11
2022-10-19T03:28:12.881Z,10.8
2022-10-19T03:33:40.334Z,10.8
2022-10-19T03:39:11.111Z,10.7
2022-10-19T03:45:01.248Z,10.8
2022-10-19T03:50:41.000Z,11.3
2022-10-19T03:56:04.093Z,11
2022-10-19T04:01:49.335Z,11.1
2022-10-19T04:07:06.330Z,11.1
2022-10-19T04:12:30.934Z,10.8
2022-10-19T04:18:18.880Z,10.7
2022-10-19T04:23:44.337Z,10.6
2022-10-19T04:29:29.372Z,10.5
2022-10-19T04:34:58.588Z,10.3
2022-10-19T04:40:37.849Z,10.5
2022-10-19T04:45:59.763Z,10.8
2022-10-19T04:51:49.607Z,11
2022-10-19T04:56:56.864Z,10.9
2022-10-19T05:02:44.124Z,10.8
2022-10-19T05:08:04.890Z,10.6
2022-10-19T05:13:50.166Z,10.6
2022-10-19T05:19:09.453Z,10.5
2022-10-19T05:25:02.723Z,10.5
2022-10-19T05:30:18.978Z,10.6
2022-10-19T05:35:54.018Z,10.8
2022-10-19T05:41:42.702Z,10.9
2022-10-19T06:14:49.821Z,11.2
2022-10-19T06:20:43.446Z,11.2
2022-10-19T06:26:15.568Z,11.3
2022-10-19T06:31:27.621Z,11.4
2022-10-19T06:42:57.231Z,11.4
2022-10-19T06:48:30.437Z,11.6
2022-10-19T06:54:01.440Z,11.7
2022-10-19T06:59:31.852Z,11.9
2022-10-19T07:05:00.301Z,12.1
2022-10-19T07:10:40.030Z,12.2
2022-10-19T07:15:57.004Z,12.1
2022-10-19T07:21:42.297Z,12.3
2022-10-19T07:27:15.461Z,12.4
2022-10-19T07:32:55.008Z,12.5
2022-10-19T07:38:28.313Z,12.6
2022-10-19T07:43:47.588Z,12.7
2022-10-19T07:49:30.566Z,12.8
2022-10-19T07:54:58.763Z,12.7
2022-10-19T08:00:28.098Z,12.7
2022-10-19T08:05:59.872Z,12.9
2022-10-19T08:11:28.222Z,13
2022-10-19T08:17:08.076Z,13.1
2022-10-19T08:22:56.334Z,13.2
2022-10-19T08:28:19.957Z,13.1
2022-10-19T08:33:52.147Z,13.1
2022-10-19T08:39:36.645Z,13.2
2022-10-19T08:44:51.426Z,13.3
2022-10-19T08:50:25.360Z,13.2
2022-10-19T08:56:12.473Z,13.3
2022-10-19T09:01:43.957Z,13.3
2022-10-19T09:07:23.644Z,13.4
2022-10-19T09:12:41.246Z,13.5
2022-10-19T09:46:19.633Z,14
2022-10-19T09:57:30.822Z,14.1
2022-10-19T10:02:57.690Z,14.1
2022-10-19T10:08:40.052Z,14.2
2022-10-19T10:14:09.954Z,14.3
2022-10-19T10:19:55.790Z,14.4
2022-10-19T10:25:28.961Z,14.5
2022-10-19T10:30:49.306Z,14.4
2022-10-19T10:36:26.377Z,14.4
2022-10-19T10:42:00.305Z,14.8
2022-10-19T10:47:43.744Z,14.9
2022-10-19T10:53:31.948Z,14.8
2022-10-19T10:59:09.706Z,14.9
2022-10-19T11:04:29.693Z,14.9
2022-10-19T11:09:58.892Z,15.1
2022-10-19T11:21:23.592Z,15.1
2022-10-19T11:26:56.241Z,15.2
2022-10-19T11:32:31.757Z,15.4
2022-10-19T11:38:19.962Z,15.3
2022-10-19T11:43:34.870Z,15.5
2022-10-19T11:48:55.938Z,15.7
2022-10-19T11:54:50.338Z,15.6
2022-10-19T12:00:37.966Z,15.9
2022-10-19T12:05:51.076Z,15.9
2022-10-19T12:11:31.218Z,15.8
2022-10-19T12:17:06.875Z,15.7
2022-10-19T12:22:50.552Z,16
2022-10-19T12:28:08.343Z,16
2022-10-19T12:33:56.541Z,16
2022-10-19T12:39:30.893Z,16.1
2022-10-19T12:44:54.927Z,16.1
2022-10-19T12:50:36.291Z,16.2
2022-10-19T12:56:08.498Z,16.5
2022-10-19T13:01:44.642Z,16.3
2022-10-19T13:07:20.793Z,16.3
2022-10-19T13:12:51.981Z,16.2
2022-10-19T13:18:37.862Z,16.5
2022-10-19T13:24:15.668Z,16.4
2022-10-19T13:29:44.084Z,16.6
2022-10-19T13:34:57.386Z,16.6
2022-10-19T13:40:46.359Z,16.9
2022-10-19T13:46:22.981Z,17.3
2022-10-19T13:52:07.112Z,17.2
2022-10-19T13:57:36.825Z,17
2022-10-19T14:02:58.314Z,16.5
2022-10-19T14:08:31.064Z,16.9
2022-10-19T14:14:12.457Z,17.1
2022-10-19T14:19:52.590Z,17.4
2022-10-19T14:25:28.442Z,17.3
2022-10-19T14:31:04.301Z,17
2022-10-19T14:36:38.595Z,16.9
2022-10-19T14:42:11.011Z,16.7
2022-10-19T14:48:03.380Z,16.6
2022-10-19T14:53:22.601Z,16.5
2022-10-19T14:58:56.265Z,16.7
2022-10-19T15:04:35.370Z,17.1
2022-10-19T15:10:14.410Z,17.2
2022-10-19T15:15:55.874Z,17
2022-10-19T15:21:36.855Z,16.8
2022-10-19T15:26:57.872Z,16.9
2022-10-19T15:32:43.042Z,16.4
2022-10-19T15:38:11.607Z,16.1
2022-10-19T15:43:46.186Z,16.1
2022-10-19T15:49:31.047Z,16
2022-10-19T15:55:05.474Z,15.9
2022-10-19T16:00:22.513Z,15.9
2022-10-19T16:05:49.178Z,15.7
2022-10-19T16:11:46.983Z,15.6
2022-10-19T16:17:00.902Z,15.4
2022-10-19T16:22:28.876Z,15.3
2022-10-19T16:28:27.712Z,15.3
2022-10-19T16:33:42.647Z,15.1
2022-10-19T16:44:40.726Z,14.9
2022-10-19T16:50:44.719Z,14.8
2022-10-19T16:55:58.316Z,14.3
2022-10-19T17:01:37.446Z,14.4
2022-10-19T17:07:10.362Z,14.6
2022-10-19T17:12:35.257Z,14.5
2022-10-19T17:24:05.095Z,14.2
2022-10-19T17:29:36.124Z,14.2
2022-10-19T17:35:04.087Z,14.1
2022-10-19T17:40:45.798Z,13.8
2022-10-19T17:45:51.334Z,14
2022-10-19T17:51:51.688Z,14
2022-10-19T17:57:12.390Z,14.2
2022-10-19T18:02:49.003Z,14.2
2022-10-19T18:08:19.269Z,14.2
2022-10-19T18:14:03.163Z,14.3
2022-10-19T18:19:36.178Z,14.3
2022-10-19T18:24:50.889Z,14.4
2022-10-19T18:30:30.063Z,14.2
2022-10-19T18:35:53.052Z,13.8
2022-10-19T18:41:27.567Z,14.1
2022-10-19T18:47:03.914Z,14.4
2022-10-19T18:52:45.447Z,14.3
2022-10-19T18:58:12.195Z,13.8
2022-10-19T19:04:05.519Z,14.5
2022-10-19T19:09:31.210Z,14.9
2022-10-19T19:14:59.042Z,14.7
2022-10-19T19:20:23.362Z,14.4
2022-10-19T19:26:02.640Z,14.1
2022-10-19T19:31:32.737Z,13.9
2022-10-19T19:37:07.451Z,13.7
2022-10-19T19:42:45.189Z,14.1
2022-10-19T19:48:15.344Z,14
2022-10-19T19:53:50.658Z,14.1
2022-10-19T19:59:30.693Z,14.1
2022-10-19T20:05:15.134Z,13.7
2022-10-19T20:10:29.931Z,13.6
2022-10-19T20:16:07.974Z,13.3
2022-10-19T20:21:39.061Z,13.5
2022-10-19T20:27:13.327Z,13.4
2022-10-19T20:32:54.218Z,13.5
2022-10-19T20:38:20.761Z,13.2
2022-10-19T20:43:48.021Z,13.3
2022-10-19T20:49:21.042Z,13.2
2022-10-19T20:55:11.175Z,12.9
2022-10-19T21:00:38.128Z,12.9
2022-10-19T21:06:16.312Z,12.9
2022-10-19T21:11:50.385Z,13.1
2022-10-19T21:17:15.642Z,13.2
2022-10-19T21:22:38.211Z,13.1
2022-10-19T21:28:21.998Z,12.8
2022-10-19T21:33:54.266Z,12.6
2022-10-19T21:39:39.346Z,12.6
2022-10-19T21:44:47.678Z,12.7
2022-10-19T21:50:34.549Z,12.7
2022-10-19T21:56:06.865Z,12.7
2022-10-19T22:01:46.319Z,12.5
2022-10-19T22:07:00.141Z,12.4
2022-10-19T22:12:48.334Z,12.3
2022-10-19T22:18:27.763Z,12.2
2022-10-19T22:23:53.499Z,12.1
2022-10-19T22:29:37.518Z,11.9
2022-10-19T22:35:04.665Z,12
2022-10-19T22:40:31.350Z,12
2022-10-19T22:45:59.661Z,12.2
2022-10-19T22:51:45.433Z,12.3
2022-10-19T22:57:23.136Z,12.2
2022-10-19T23:02:44.723Z,12.3
2022-10-19T23:08:25.874Z,12.3
2022-10-19T23:13:45.744Z,12.2
2022-10-19T23:19:16.606Z,12.3
2022-10-19T23:25:05.362Z,12.3
2022-10-19T23:30:25.779Z,12.3
2022-10-19T23:35:57.451Z,12.3
2022-10-19T23:41:47.523Z,12.4
2022-10-19T23:47:19.551Z,12.5
2022-10-19T23:52:51.339Z,12.5
2022-10-19T23:58:05.817Z,12.6
